Terminal Aerodrome Forecast
Issued by NWS Louisville, KY

Home | Current Version | Previous Version | Text Only | Print | Product List | Glossary On
Versions: 1 2 3 4 5 6 7 8 9 10 11 12 13 14 15 16 17 18 19 20 21 22
000
FTUS43 KLMK 300536
TAFLEX
TAF
KLEX 300536Z 3006/3106 21005KT P6SM VCSH FEW040 SCT100
      TEMPO 3006/3007 5SM SHRA BKN040
     FM300900 21004KT 5SM BR SCT009 BKN250
      TEMPO 3010/3014 BKN009
     FM301400 24006KT P6SM VCSH BKN020
     FM301800 24007KT P6SM BKN035 PROB30 3018/3022 VRB15G25KT 5SM
      TSRA BKN025CB=

USA.gov is the U.S. government's official web portal to all federal, state and local government web resources and services.